createdAt,value
2018-12-24T00:00:51.616Z,36.53
2018-12-24T00:03:18.664Z,36.93
2018-12-24T00:05:45.718Z,41.27
2018-12-24T00:08:12.761Z,41.13
2018-12-24T00:10:39.809Z,41.83
2018-12-24T00:13:06.863Z,35.10
2018-12-24T00:15:33.908Z,37.47
2018-12-24T00:18:00.954Z,38.60
2018-12-24T00:20:28.010Z,38.43
2018-12-24T00:22:55.051Z,39.57
2018-12-24T00:25:22.100Z,44.83
2018-12-24T00:27:49.096Z,40.17
2018-12-24T00:30:16.095Z,41.60
2018-12-24T00:32:43.149Z,38.70
2018-12-24T00:35:11.421Z,37.57
2018-12-24T00:37:38.470Z,36.77
2018-12-24T00:40:05.524Z,42.57
2018-12-24T00:42:32.568Z,43.40
2018-12-24T00:44:59.617Z,39.83
2018-12-24T00:47:26.669Z,42.03
2018-12-24T00:49:53.712Z,39.73
2018-12-24T00:52:20.761Z,36.23
2018-12-24T00:54:47.815Z,37.60
2018-12-24T00:57:14.858Z,34.53
2018-12-24T00:59:41.907Z,39.27
2018-12-24T01:02:08.961Z,37.37
2018-12-24T01:04:36.005Z,35.60
2018-12-24T01:07:03.052Z,32.63
2018-12-24T01:09:30.108Z,34.87
2018-12-24T01:11:58.050Z,34.50
2018-12-24T01:14:24.251Z,35.30
2018-12-24T01:16:51.252Z,33.00
2018-12-24T01:19:18.296Z,29.47
2018-12-24T01:21:46.026Z,33.33
2018-12-24T01:24:13.015Z,35.93
2018-12-24T01:26:40.007Z,33.23
2018-12-24T01:29:07.006Z,34.37
2018-12-24T01:31:34.051Z,27.60
2018-12-24T01:34:01.098Z,34.90
2018-12-24T01:36:28.160Z,36.67
2018-12-24T01:38:55.196Z,29.50
2018-12-24T01:41:22.244Z,31.50
2018-12-24T01:43:49.298Z,35.37
2018-12-24T01:46:16.341Z,30.23
2018-12-24T01:48:43.388Z,32.07
2018-12-24T01:51:10.443Z,34.27
2018-12-24T01:53:37.489Z,16.27
2018-12-24T01:56:04.535Z,10.07
2018-12-24T01:58:32.607Z,17.53
2018-12-24T02:00:59.661Z,19.40
2018-12-24T02:03:26.704Z,13.77
2018-12-24T02:05:54.212Z,10.90
2018-12-24T02:08:21.211Z,10.70
2018-12-24T02:10:48.208Z,11.07
2018-12-24T02:13:15.667Z,7.80
2018-12-24T02:15:42.664Z,12.00
2018-12-24T02:18:09.717Z,24.90
2018-12-24T02:20:36.873Z,7.73
2018-12-24T02:23:03.917Z,17.70
2018-12-24T02:25:31.053Z,7.07
2018-12-24T02:27:58.015Z,10.77
2018-12-24T02:30:25.063Z,5.77
2018-12-24T02:32:52.114Z,5.40
2018-12-24T02:35:19.566Z,8.77
2018-12-24T02:37:48.157Z,1.97
2018-12-24T02:40:15.197Z,7.43
2018-12-24T02:42:52.032Z,9.07
2018-12-24T02:45:09.398Z,23.80
2018-12-24T02:47:36.450Z,11.33
2018-12-24T02:50:03.495Z,20.13
2018-12-24T02:52:30.543Z,12.00
2018-12-24T02:54:57.598Z,9.63
2018-12-24T02:57:24.639Z,2.90
2018-12-24T02:59:51.689Z,27.90
2018-12-24T03:02:18.741Z,24.90
2018-12-24T03:04:45.786Z,24.43
2018-12-24T03:07:12.834Z,15.27
2018-12-24T03:09:39.887Z,7.70
2018-12-24T03:12:06.933Z,13.37
2018-12-24T03:14:33.980Z,17.77
2018-12-24T03:17:01.037Z,24.47
2018-12-24T03:19:28.086Z,23.00
2018-12-24T03:21:55.126Z,9.33
2018-12-24T03:24:22.180Z,21.50
2018-12-24T03:26:49.224Z,20.47
2018-12-24T03:29:16.270Z,24.27
2018-12-24T03:31:43.327Z,23.90
2018-12-24T03:34:10.368Z,16.90
2018-12-24T03:36:37.521Z,25.53
2018-12-24T03:39:06.313Z,23.37
2018-12-24T03:41:34.844Z,22.83
2018-12-24T03:44:01.942Z,25.43
2018-12-24T03:46:28.889Z,26.47
2018-12-24T03:48:56.244Z,24.90
2018-12-24T03:51:23.303Z,19.80
2018-12-24T03:53:50.341Z,10.53
2018-12-24T03:56:18.007Z,13.27
2018-12-24T03:58:45.057Z,15.47
2018-12-24T04:01:12.105Z,5.60
2018-12-24T04:03:39.458Z,17.37
2018-12-24T04:06:06.510Z,8.00
2018-12-24T04:08:33.554Z,13.03
2018-12-24T04:11:01.012Z,17.80
2018-12-24T04:13:28.060Z,22.10
2018-12-24T04:15:55.114Z,25.83
2018-12-24T04:18:22.879Z,29.50
2018-12-24T04:20:49.922Z,23.03
2018-12-24T04:23:16.970Z,31.17
2018-12-24T04:25:44.027Z,22.30
2018-12-24T04:28:11.070Z,4.17
2018-12-24T04:30:38.120Z,17.20
2018-12-24T04:33:05.170Z,2.17
2018-12-24T04:35:32.214Z,1.87
2018-12-24T04:37:59.263Z,22.80
2018-12-24T04:40:26.315Z,19.20
2018-12-24T04:42:53.361Z,22.53
2018-12-24T04:45:39.455Z,22.63
2018-12-24T04:48:29.421Z,18.77
2018-12-24T04:51:15.018Z,25.70
2018-12-24T04:53:42.072Z,20.17
2018-12-24T04:56:09.019Z,22.87
2018-12-24T04:58:36.067Z,19.77
2018-12-24T05:01:03.122Z,27.50
2018-12-24T05:03:30.165Z,25.60
2018-12-24T05:05:57.213Z,22.83
2018-12-24T05:08:24.266Z,20.57
2018-12-24T05:10:51.311Z,25.00
2018-12-24T05:13:18.360Z,22.57
2018-12-24T05:15:45.413Z,23.80
2018-12-24T05:18:12.458Z,23.43
2018-12-24T05:20:39.503Z,21.50
2018-12-24T05:23:06.559Z,24.30
2018-12-24T05:25:35.143Z,28.93
2018-12-24T05:28:02.188Z,21.93
2018-12-24T05:30:29.241Z,22.30
2018-12-24T05:32:57.205Z,24.13
2018-12-24T05:35:24.662Z,25.77
2018-12-24T05:37:51.713Z,28.50
2018-12-24T05:40:18.764Z,25.43
2018-12-24T05:42:45.808Z,23.93
2018-12-24T05:45:12.857Z,27.10
2018-12-24T05:47:40.622Z,23.73
2018-12-24T05:50:07.675Z,24.00
2018-12-24T05:52:34.720Z,24.13
2018-12-24T05:55:01.981Z,23.03
2018-12-24T05:57:28.920Z,27.50
2018-12-24T05:59:55.973Z,26.67
2018-12-24T06:02:23.015Z,22.97
2018-12-24T06:04:50.064Z,20.73
2018-12-24T06:07:17.119Z,19.63
2018-12-24T06:09:44.162Z,24.10
2018-12-24T06:12:11.214Z,28.27
2018-12-24T06:14:38.264Z,21.27
2018-12-24T06:17:05.307Z,26.33
2018-12-24T06:19:32.356Z,26.23
2018-12-24T06:21:59.409Z,30.47
2018-12-24T06:24:26.868Z,27.47
2018-12-24T06:26:53.914Z,23.40
2018-12-24T06:29:20.959Z,24.33
2018-12-24T06:31:48.014Z,41.37
2018-12-24T06:34:15.056Z,46.67
2018-12-24T06:36:46.407Z,20.77
2018-12-24T06:39:13.459Z,19.43
2018-12-24T06:41:40.504Z,17.73
2018-12-24T06:44:07.553Z,14.50
2018-12-24T06:46:34.605Z,18.17
2018-12-24T06:49:01.649Z,19.67
2018-12-24T06:51:28.700Z,19.13
2018-12-24T06:53:55.753Z,16.20
2018-12-24T06:56:22.794Z,22.70
2018-12-24T06:58:49.842Z,23.90
2018-12-24T07:01:16.896Z,22.90
2018-12-24T07:03:43.941Z,13.80
2018-12-24T07:06:10.988Z,25.90
2018-12-24T07:08:38.041Z,15.03
2018-12-24T07:11:05.085Z,16.47
2018-12-24T07:13:32.136Z,17.40
2018-12-24T07:15:59.188Z,25.77
2018-12-24T07:18:26.232Z,26.37
2018-12-24T07:20:53.281Z,15.43
2018-12-24T07:23:20.430Z,23.30
2018-12-24T07:25:47.485Z,24.87
2018-12-24T07:28:14.529Z,23.30
2018-12-24T07:30:41.579Z,26.47
2018-12-24T07:33:08.574Z,23.63
2018-12-24T07:35:35.572Z,26.70
2018-12-24T07:38:03.135Z,20.27
2018-12-24T07:40:29.975Z,20.93
2018-12-24T07:42:57.024Z,23.60
2018-12-24T07:45:24.077Z,21.57
2018-12-24T07:47:51.122Z,11.30
2018-12-24T07:50:18.170Z,25.57
2018-12-24T07:52:47.778Z,23.97
2018-12-24T07:55:14.832Z,21.40
2018-12-24T07:57:41.876Z,19.17
2018-12-24T08:00:08.924Z,12.70
2018-12-24T08:02:35.977Z,13.77
2018-12-24T08:05:03.021Z,23.80
2018-12-24T08:07:30.071Z,26.87
2018-12-24T08:09:57.124Z,23.10
2018-12-24T08:12:24.171Z,16.50
2018-12-24T08:14:51.215Z,21.60
2018-12-24T08:17:18.270Z,25.97
2018-12-24T08:19:45.314Z,19.30
2018-12-24T08:22:12.364Z,13.13
2018-12-24T08:24:39.306Z,19.63
2018-12-24T08:27:06.355Z,22.07
2018-12-24T08:29:33.352Z,25.20
2018-12-24T08:32:00.348Z,16.73
2018-12-24T08:34:27.403Z,11.60
2018-12-24T08:36:54.449Z,12.47
2018-12-24T08:39:21.495Z,18.07
2018-12-24T08:41:48.568Z,8.33
2018-12-24T08:44:15.595Z,8.73
2018-12-24T08:46:42.640Z,22.27
2018-12-24T08:49:09.694Z,7.10
2018-12-24T08:51:36.737Z,17.70
2018-12-24T08:54:03.786Z,10.07
2018-12-24T08:56:30.937Z,14.73
2018-12-24T08:58:59.834Z,22.17
2018-12-24T09:01:28.673Z,21.17
2018-12-24T09:03:55.672Z,24.40
2018-12-24T09:06:22.714Z,26.97
2018-12-24T09:08:49.763Z,30.97
2018-12-24T09:11:16.818Z,18.10
2018-12-24T09:13:43.861Z,2.00
2018-12-24T09:16:10.812Z,2.97
2018-12-24T09:18:37.856Z,27.17
2018-12-24T09:21:05.729Z,26.37
2018-12-24T09:23:32.771Z,11.37
2018-12-24T09:25:59.822Z,5.23
2018-12-24T09:28:27.381Z,26.13
2018-12-24T09:30:54.429Z,21.90
2018-12-24T09:33:21.485Z,27.67
2018-12-24T09:35:48.943Z,22.70
2018-12-24T09:38:15.984Z,31.43
2018-12-24T09:40:43.033Z,38.50
2018-12-24T09:43:10.089Z,35.10
2018-12-24T09:45:37.131Z,38.00
2018-12-24T09:48:04.180Z,35.97
2018-12-24T09:50:31.233Z,38.47
2018-12-24T09:52:58.278Z,39.80
2018-12-24T09:55:25.324Z,42.00
2018-12-24T09:57:52.378Z,44.03
2018-12-24T10:00:19.423Z,64.43
2018-12-24T10:02:46.471Z,44.90
2018-12-24T10:05:13.525Z,55.70
2018-12-24T10:07:40.597Z,52.97
2018-12-24T10:10:07.719Z,44.50
2018-12-24T10:12:34.768Z,46.33
2018-12-24T10:15:08.010Z,48.23
2018-12-24T10:17:28.866Z,49.23
2018-12-24T10:19:55.913Z,48.87
2018-12-24T10:22:23.073Z,48.20
2018-12-24T10:24:50.117Z,49.30
2018-12-24T10:27:17.161Z,53.60
2018-12-24T10:29:46.210Z,42.40
2018-12-24T10:32:13.203Z,51.27
2018-12-24T10:34:40.259Z,47.50
2018-12-24T10:37:07.301Z,48.33
2018-12-24T10:39:34.351Z,50.87
2018-12-24T10:42:02.728Z,47.13
2018-12-24T10:44:29.783Z,54.30
2018-12-24T10:46:58.471Z,49.23
2018-12-24T10:49:24.590Z,51.83
2018-12-24T10:51:51.639Z,48.43
2018-12-24T10:54:18.693Z,50.93
2018-12-24T10:56:46.047Z,52.30
2018-12-24T10:59:13.093Z,43.17
2018-12-24T11:01:40.147Z,54.63
2018-12-24T11:04:07.240Z,49.57
2018-12-24T11:06:34.243Z,48.17
2018-12-24T11:09:01.293Z,49.13
2018-12-24T11:11:28.698Z,49.80
2018-12-24T11:13:55.730Z,51.33
2018-12-24T11:16:22.689Z,50.23
2018-12-24T11:18:49.992Z,49.70
2018-12-24T11:21:17.054Z,45.97
2018-12-24T11:23:44.090Z,49.17
2018-12-24T11:26:11.200Z,50.00
2018-12-24T11:28:38.191Z,54.03
2018-12-24T11:31:05.235Z,51.63
2018-12-24T11:33:32.288Z,49.43
2018-12-24T11:35:59.338Z,49.40
2018-12-24T11:38:26.382Z,53.93
2018-12-24T11:40:53.431Z,46.23
2018-12-24T11:43:21.156Z,55.90
2018-12-24T11:45:48.810Z,51.83
2018-12-24T11:48:16.015Z,47.27
2018-12-24T11:50:43.057Z,47.30
2018-12-24T11:53:10.107Z,47.00
2018-12-24T11:55:37.567Z,49.57
2018-12-24T11:58:13.483Z,48.20
2018-12-24T12:00:33.812Z,57.27
2018-12-24T12:03:00.863Z,45.50
2018-12-24T12:05:27.913Z,45.70
2018-12-24T12:07:54.958Z,48.43
2018-12-24T12:10:22.006Z,46.00
2018-12-24T12:12:49.060Z,45.80
2018-12-24T12:15:16.103Z,46.70
2018-12-24T12:17:43.153Z,45.60
2018-12-24T12:20:10.207Z,52.70
2018-12-24T12:22:37.249Z,48.53
2018-12-24T12:25:04.296Z,41.83
2018-12-24T12:27:31.352Z,41.93
2018-12-24T12:29:58.394Z,39.73
2018-12-24T12:32:26.267Z,42.30
2018-12-24T12:34:53.210Z,45.83
2018-12-24T12:37:20.262Z,41.33
2018-12-24T12:39:48.333Z,42.27
2018-12-24T12:42:15.377Z,41.03
2018-12-24T12:44:42.425Z,41.60
2018-12-24T12:47:10.249Z,43.47
2018-12-24T12:49:37.343Z,54.77
2018-12-24T12:52:04.401Z,44.23
2018-12-24T12:54:31.441Z,42.57
2018-12-24T12:57:00.035Z,45.20
2018-12-24T12:59:27.078Z,49.80
2018-12-24T13:01:54.121Z,50.47
2018-12-24T13:04:21.170Z,44.97
2018-12-24T13:06:48.785Z,50.80
2018-12-24T13:09:15.778Z,49.03
2018-12-24T13:11:42.777Z,48.03
2018-12-24T13:14:09.773Z,44.27
2018-12-24T13:16:36.828Z,47.53
2018-12-24T13:19:03.874Z,40.20
2018-12-24T13:21:30.926Z,45.20
2018-12-24T13:23:57.973Z,46.13
2018-12-24T13:26:24.971Z,47.90
2018-12-24T13:28:52.064Z,47.30
2018-12-24T13:31:19.118Z,39.00
2018-12-24T13:33:46.274Z,42.97
2018-12-24T13:36:13.312Z,40.73
2018-12-24T13:38:40.264Z,33.03
2018-12-24T13:41:07.306Z,40.63
2018-12-24T13:43:35.295Z,41.80
2018-12-24T13:46:08.048Z,41.33
2018-12-24T13:48:28.560Z,45.53
2018-12-24T13:50:55.558Z,43.07
2018-12-24T13:53:23.169Z,42.90
2018-12-24T13:55:50.213Z,42.93
2018-12-24T13:58:17.783Z,46.73
2018-12-24T14:00:44.826Z,45.13
2018-12-24T14:03:11.875Z,46.80
2018-12-24T14:05:38.925Z,47.57
2018-12-24T14:08:09.189Z,48.43
2018-12-24T14:10:38.346Z,47.47
2018-12-24T14:13:07.027Z,48.07
2018-12-24T14:15:34.177Z,47.17
2018-12-24T14:18:01.228Z,54.57
2018-12-24T14:20:29.708Z,49.80
2018-12-24T14:22:56.759Z,48.07
2018-12-24T14:25:23.812Z,47.30
2018-12-24T14:27:51.269Z,51.00
2018-12-24T14:30:18.314Z,49.10
2018-12-24T14:32:45.363Z,48.63
2018-12-24T14:35:12.616Z,52.80
2018-12-24T14:37:39.619Z,55.60
2018-12-24T14:40:06.718Z,49.53
2018-12-24T14:42:34.483Z,48.53
2018-12-24T14:45:01.528Z,50.97
2018-12-24T14:47:48.505Z,47.87
2018-12-24T14:50:15.599Z,49.20
2018-12-24T14:52:42.640Z,55.60
2018-12-24T14:55:09.688Z,52.33
2018-12-24T14:57:36.689Z,51.93
2018-12-24T15:00:03.838Z,56.67
2018-12-24T15:02:30.835Z,52.13
2018-12-24T15:04:57.987Z,55.80
2018-12-24T15:07:25.040Z,60.07
2018-12-24T15:09:52.083Z,64.40
2018-12-24T15:12:19.134Z,53.83
2018-12-24T15:14:46.188Z,49.00
2018-12-24T15:17:13.229Z,51.33
2018-12-24T15:19:40.278Z,54.50
2018-12-24T15:22:07.275Z,54.37
2018-12-24T15:24:34.274Z,52.27
2018-12-24T15:27:01.327Z,59.23
2018-12-24T15:29:29.039Z,53.90
2018-12-24T15:31:55.986Z,62.60
2018-12-24T15:34:22.992Z,60.57
2018-12-24T15:36:50.028Z,56.63
2018-12-24T15:39:19.122Z,56.20
2018-12-24T15:41:46.175Z,54.83
2018-12-24T15:44:13.170Z,54.47
2018-12-24T15:46:42.807Z,52.87
2018-12-24T15:49:07.329Z,53.60
2018-12-24T15:51:34.371Z,51.03
2018-12-24T15:54:03.364Z,54.03
2018-12-24T15:56:30.410Z,56.30
2018-12-24T15:58:57.456Z,61.83
2018-12-24T16:01:24.513Z,68.07
2018-12-24T16:03:51.553Z,58.03
2018-12-24T16:06:18.602Z,64.27
2018-12-24T16:08:45.658Z,63.27
2018-12-24T16:11:12.699Z,59.97
2018-12-24T16:13:39.747Z,71.67
2018-12-24T16:16:08.230Z,71.53
2018-12-24T16:18:35.282Z,62.50
2018-12-24T16:21:02.332Z,57.03
2018-12-24T16:23:29.376Z,49.93
2018-12-24T16:25:56.426Z,55.57
2018-12-24T16:28:23.580Z,64.20
2018-12-24T16:30:50.629Z,62.03
2018-12-24T16:33:17.979Z,74.80
2018-12-24T16:35:45.028Z,59.77
2018-12-24T16:38:12.082Z,52.70
2018-12-24T16:40:39.285Z,59.23
2018-12-24T16:43:06.385Z,66.97
2018-12-24T16:45:33.426Z,69.30
2018-12-24T16:48:00.579Z,66.00
2018-12-24T16:50:27.627Z,69.60
2018-12-24T16:52:54.681Z,62.63
2018-12-24T16:55:21.727Z,63.30
2018-12-24T16:57:48.776Z,54.57
2018-12-24T17:00:15.828Z,53.50
2018-12-24T17:02:42.872Z,54.50
2018-12-24T17:05:09.921Z,48.63
2018-12-24T17:07:36.972Z,55.93
2018-12-24T17:10:04.016Z,61.87
2018-12-24T17:12:31.063Z,80.53
2018-12-24T17:14:58.826Z,163.93
2018-12-24T17:17:25.883Z,64.60
2018-12-24T17:19:52.925Z,60.70
2018-12-24T17:22:19.976Z,59.90
2018-12-24T17:24:47.028Z,56.63
2018-12-24T17:27:14.072Z,64.47
2018-12-24T17:29:46.018Z,70.27
2018-12-24T17:32:12.980Z,55.97
2018-12-24T17:34:40.030Z,56.63
2018-12-24T17:37:07.083Z,77.63
2018-12-24T17:39:35.664Z,91.63
2018-12-24T17:42:02.712Z,76.83
2018-12-24T17:44:29.664Z,69.60
2018-12-24T17:46:56.705Z,62.90
2018-12-24T17:49:23.760Z,61.43
2018-12-24T17:51:52.238Z,64.17
2018-12-24T17:54:19.184Z,61.60
2018-12-24T17:56:46.231Z,63.93
2018-12-24T17:59:14.514Z,63.03
2018-12-24T18:01:41.558Z,44.07
2018-12-24T18:04:09.162Z,58.57
2018-12-24T18:06:35.859Z,63.90
2018-12-24T18:09:04.852Z,53.07
2018-12-24T18:11:31.902Z,56.97
2018-12-24T18:13:58.958Z,53.37
2018-12-24T18:16:25.999Z,49.90
2018-12-24T18:18:53.355Z,51.60
2018-12-24T18:21:20.408Z,64.17
2018-12-24T18:23:47.452Z,91.93
2018-12-24T18:26:14.504Z,52.57
2018-12-24T18:28:42.476Z,54.77
2018-12-24T18:31:19.850Z,53.27
2018-12-24T18:33:59.742Z,61.93
2018-12-24T18:36:37.536Z,59.80
2018-12-24T18:39:09.024Z,59.27
2018-12-24T18:41:55.261Z,54.97
2018-12-24T18:44:22.311Z,88.57
2018-12-24T18:47:05.324Z,126.70
2018-12-24T18:49:52.571Z,15.70
2018-12-24T18:52:47.364Z,36.47
2018-12-24T18:55:20.231Z,61.67
2018-12-24T18:57:46.168Z,53.67
2018-12-24T19:00:32.869Z,54.57
2018-12-24T19:03:14.431Z,40.70
2018-12-24T19:05:41.411Z,52.70
2018-12-24T19:08:08.563Z,50.17
2018-12-24T19:10:35.560Z,49.73
2018-12-24T19:13:02.655Z,50.77
2018-12-24T19:15:34.025Z,38.03
2018-12-24T19:18:01.259Z,60.13
2018-12-24T19:20:44.928Z,54.37
2018-12-24T19:23:32.554Z,53.90
2018-12-24T19:26:18.733Z,41.47
2018-12-24T19:29:05.251Z,49.13
2018-12-24T19:31:52.867Z,47.43
2018-12-24T19:34:38.628Z,45.93
2018-12-24T19:37:05.748Z,40.93
2018-12-24T19:39:32.745Z,41.93
2018-12-24T19:41:59.801Z,43.17
2018-12-24T19:44:26.843Z,51.83
2018-12-24T19:46:54.507Z,38.20
2018-12-24T19:49:21.560Z,53.80
2018-12-24T19:52:10.299Z,52.37
2018-12-24T19:54:57.195Z,56.30
2018-12-24T19:57:24.207Z,47.80
2018-12-24T19:59:51.227Z,59.00
2018-12-24T20:02:18.271Z,43.03
2018-12-24T20:04:45.325Z,48.43
2018-12-24T20:07:12.368Z,57.07
2018-12-24T20:09:39.417Z,51.20
2018-12-24T20:12:08.256Z,55.27
2018-12-24T20:17:46.505Z,66.53
2018-12-24T20:20:36.621Z,49.53
2018-12-24T20:23:03.677Z,40.20
2018-12-24T20:25:30.731Z,64.87
2018-12-24T20:27:57.775Z,47.60
2018-12-24T20:30:44.341Z,43.57
2018-12-24T20:33:33.848Z,42.00
2018-12-24T20:36:02.270Z,36.27
2018-12-24T20:38:36.840Z,46.77
2018-12-24T20:41:15.281Z,42.07
2018-12-24T20:43:42.326Z,31.30
2018-12-24T20:46:09.324Z,52.37
2018-12-24T20:48:37.882Z,35.30
2018-12-24T20:51:05.832Z,42.00
2018-12-24T20:53:33.387Z,38.20
2018-12-24T20:56:00.472Z,42.70
2018-12-24T20:58:27.490Z,33.47
2018-12-24T21:00:54.532Z,7.13
2018-12-24T21:03:21.685Z,45.23
2018-12-24T21:05:48.738Z,41.70
2018-12-24T21:08:15.784Z,51.53
2018-12-24T21:10:43.137Z,55.27
2018-12-24T21:13:12.035Z,49.13
2018-12-24T21:15:39.079Z,44.83
2018-12-24T21:18:14.869Z,42.80
2018-12-24T21:20:34.916Z,60.90
2018-12-24T21:23:01.963Z,52.13
2018-12-24T21:25:29.528Z,91.67
2018-12-24T21:27:56.572Z,53.53
2018-12-24T21:30:45.466Z,68.47
2018-12-24T21:33:12.482Z,62.87
2018-12-24T21:35:39.529Z,61.07
2018-12-24T21:38:06.988Z,57.33
2018-12-24T21:40:33.989Z,52.63
2018-12-24T21:43:00.938Z,52.03
2018-12-24T21:45:28.133Z,27.60
2018-12-24T21:47:55.187Z,18.77
2018-12-24T21:50:22.236Z,63.57
2018-12-24T21:52:49.300Z,55.80
2018-12-24T21:55:16.332Z,65.63
2018-12-24T21:57:45.635Z,32.03
2018-12-24T22:00:13.092Z,24.30
2018-12-24T22:03:01.127Z,15.80
2018-12-24T22:05:28.177Z,39.40
2018-12-24T22:07:55.224Z,11.40
2018-12-24T22:10:22.277Z,27.47
2018-12-24T22:12:49.277Z,40.90
2018-12-24T22:15:16.370Z,48.80
2018-12-24T22:17:43.424Z,35.03
2018-12-24T22:20:10.672Z,29.40
2018-12-24T22:22:37.727Z,28.73
2018-12-24T22:25:04.770Z,32.50
2018-12-24T22:27:31.817Z,37.23
2018-12-24T22:29:58.872Z,16.17
2018-12-24T22:32:25.915Z,26.83
2018-12-24T22:34:52.963Z,26.77
2018-12-24T22:37:20.015Z,30.83
2018-12-24T22:39:47.265Z,37.03
2018-12-24T22:42:14.318Z,27.80
2018-12-24T22:44:41.366Z,25.87
2018-12-24T22:47:08.414Z,34.37
2018-12-24T22:49:35.464Z,31.23
2018-12-24T22:52:02.464Z,29.17
2018-12-24T22:54:29.410Z,31.27
2018-12-24T22:56:56.399Z,28.17
2018-12-24T22:59:23.455Z,31.37
2018-12-24T23:01:50.496Z,24.27
2018-12-24T23:04:17.545Z,28.77
2018-12-24T23:06:44.598Z,32.50
2018-12-24T23:09:11.948Z,22.90
2018-12-24T23:11:38.996Z,16.00
2018-12-24T23:14:06.050Z,17.97
2018-12-24T23:16:33.095Z,26.90
2018-12-24T23:19:00.146Z,24.90
2018-12-24T23:21:27.195Z,27.40
2018-12-24T23:23:54.907Z,25.93
2018-12-24T23:26:22.005Z,22.87
2018-12-24T23:28:49.061Z,19.07
2018-12-24T23:31:24.572Z,18.10
2018-12-24T23:33:51.554Z,26.13
2018-12-24T23:36:18.603Z,26.70
2018-12-24T23:38:45.645Z,24.87
2018-12-24T23:41:12.698Z,23.90
2018-12-24T23:43:39.742Z,23.50
2018-12-24T23:46:06.791Z,20.43
2018-12-24T23:48:33.844Z,25.77
2018-12-24T23:51:00.888Z,22.13
2018-12-24T23:53:27.936Z,19.50
2018-12-24T23:55:56.622Z,22.97
2018-12-24T23:58:25.673Z,21.97
